Time;durP1;ratioP1;P1;durP2;ratioP2;P2;SDS_P1;SDS_P2;PMS_P1;PMS_P2;Temp;Humidity;BMP_temperature;BMP_pressure;BME280_temperature;BME280_humidity;BME280_pressure;Samples;Min_cycle;Max_cycle;Signal;HPM_P1;HPM_P2
2021/07/04 00:02:04;;;;;;;4.97;4.38;;;17.00;88.80;;;;;;5032555;28;20021;-71
2021/07/04 00:04:30;;;;;;;5.32;4.32;;;17.10;89.00;;;;;;5032466;28;20049;-71
2021/07/04 00:06:55;;;;;;;6.38;4.57;;;17.00;88.60;;;;;;5015027;28;20492;-71
2021/07/04 00:09:21;;;;;;;6.18;4.47;;;17.00;88.10;;;;;;5032753;28;20022;-71
2021/07/04 00:11:47;;;;;;;5.28;4.75;;;17.10;88.20;;;;;;5032678;28;20036;-71
2021/07/04 00:14:13;;;;;;;8.52;5.10;;;17.10;88.10;;;;;;5032629;28;20029;-72
2021/07/04 00:16:40;;;;;;;5.30;4.55;;;17.10;88.00;;;;;;5032692;28;20028;-72
2021/07/04 00:19:05;;;;;;;4.93;3.97;;;17.10;87.80;;;;;;5032632;28;20036;-72
2021/07/04 00:21:31;;;;;;;5.25;4.03;;;17.00;87.70;;;;;;5032567;28;20433;-72
2021/07/04 00:23:57;;;;;;;5.05;4.15;;;17.10;88.70;;;;;;5032659;28;20066;-72
2021/07/04 00:26:22;;;;;;;6.63;4.63;;;17.00;87.60;;;;;;5032579;28;20025;-72
2021/07/04 00:28:48;;;;;;;5.95;4.20;;;17.00;87.80;;;;;;5032669;28;20030;-72
2021/07/04 00:31:14;;;;;;;8.98;4.75;;;17.00;88.30;;;;;;5035312;28;20508;-72
2021/07/04 00:33:39;;;;;;;5.45;4.25;;;17.00;88.20;;;;;;5036294;28;20057;-72
2021/07/04 00:36:06;;;;;;;4.55;4.13;;;17.10;88.20;;;;;;5018586;28;20064;-72
2021/07/04 00:38:31;;;;;;;6.40;4.78;;;17.00;87.90;;;;;;5036234;28;20041;-72
2021/07/04 00:40:57;;;;;;;5.88;4.47;;;17.00;87.80;;;;;;5037059;28;20017;-73
2021/07/04 00:43:22;;;;;;;6.20;4.75;;;17.00;87.70;;;;;;5039936;28;20489;-73
2021/07/04 00:45:48;;;;;;;5.15;4.65;;;17.00;87.50;;;;;;5037064;28;20097;-72
2021/07/04 00:48:14;;;;;;;5.40;4.65;;;17.00;87.50;;;;;;5036012;28;20378;-72
2021/07/04 00:50:40;;;;;;;5.22;4.72;;;16.90;87.20;;;;;;5035944;28;20484;-72
2021/07/04 00:53:06;;;;;;;8.68;6.05;;;16.90;87.40;;;;;;5035861;28;20042;-72
2021/07/04 00:55:33;;;;;;;6.80;4.95;;;17.00;87.80;;;;;;5035901;28;20078;-72
2021/07/04 00:58:00;;;;;;;6.55;4.80;;;17.00;87.80;;;;;;5035897;28;20057;-72
2021/07/04 01:00:29;;;;;;;6.45;5.40;;;17.00;87.70;;;;;;5035806;28;20092;-72
2021/07/04 01:02:55;;;;;;;6.72;4.28;;;16.90;87.80;;;;;;5017822;28;20132;-72
2021/07/04 01:05:26;;;;;;;5.50;4.95;;;17.00;87.80;;;;;;5017889;28;20108;-72
2021/07/04 01:07:52;;;;;;;6.05;4.72;;;17.00;87.80;;;;;;5035698;28;20096;-72
2021/07/04 01:10:22;;;;;;;6.97;4.78;;;17.00;87.60;;;;;;5035625;28;20021;-72
2021/07/04 01:12:49;;;;;;;5.47;4.60;;;17.00;87.70;;;;;;5035528;28;20040;-72
2021/07/04 01:15:19;;;;;;;6.03;5.30;;;16.90;87.90;;;;;;5035629;28;20076;-72
2021/07/04 01:17:49;;;;;;;5.50;4.65;;;16.90;88.00;;;;;;5017763;28;20033;-71
2021/07/04 01:20:19;;;;;;;6.53;5.03;;;16.90;88.10;;;;;;5035396;28;20022;-72
2021/07/04 01:22:54;;;;;;;8.88;5.18;;;16.90;88.10;;;;;;5035487;28;20032;-72
2021/07/04 01:25:20;;;;;;;5.30;4.80;;;16.90;88.20;;;;;;5035430;28;20120;-72
2021/07/04 01:27:45;;;;;;;7.07;4.82;;;16.80;88.00;;;;;;5035464;28;20073;-73
2021/07/04 01:30:12;;;;;;;6.22;5.60;;;16.80;88.00;;;;;;5037881;28;20025;-73
2021/07/04 01:32:37;;;;;;;6.72;5.40;;;16.80;88.10;;;;;;5043069;28;20038;-72
2021/07/04 01:35:03;;;;;;;6.43;5.18;;;16.80;88.20;;;;;;5018786;28;20024;-72
2021/07/04 01:37:29;;;;;;;9.02;5.97;;;16.70;88.00;;;;;;5035002;28;20069;-72
2021/07/04 01:39:55;;;;;;;5.82;4.78;;;16.70;88.00;;;;;;5035118;28;20026;-72
2021/07/04 01:42:20;;;;;;;6.90;5.45;;;16.70;88.20;;;;;;5034813;28;20048;-72
2021/07/04 01:44:46;;;;;;;7.57;5.65;;;16.70;88.40;;;;;;5035004;28;20115;-72
2021/07/04 01:47:11;;;;;;;7.85;4.82;;;16.70;88.60;;;;;;5034901;28;20104;-72
2021/07/04 01:49:37;;;;;;;6.18;4.28;;;16.70;88.70;;;;;;5035026;28;20030;-72
2021/07/04 01:52:04;;;;;;;7.57;5.30;;;16.70;88.90;;;;;;5017068;28;20040;-72
2021/07/04 01:54:31;;;;;;;7.30;5.05;;;16.70;89.00;;;;;;5035031;28;20026;-72
2021/07/04 01:56:57;;;;;;;7.50;5.28;;;16.70;88.80;;;;;;5034740;28;20026;-72
2021/07/04 01:59:22;;;;;;;5.80;5.07;;;16.70;88.70;;;;;;5034723;28;20100;-71
2021/07/04 02:01:48;;;;;;;6.38;4.82;;;16.60;88.80;;;;;;5034605;28;20026;-71
2021/07/04 02:04:13;;;;;;;10.32;5.13;;;16.70;88.80;;;;;;5034507;28;20409;-71
2021/07/04 02:06:39;;;;;;;7.13;5.88;;;16.70;89.00;;;;;;5034535;28;20026;-71
2021/07/04 02:09:05;;;;;;;8.73;5.65;;;16.70;88.80;;;;;;5034595;28;20082;-71
2021/07/04 02:11:30;;;;;;;7.95;5.25;;;16.70;88.70;;;;;;5034428;28;20064;-72
2021/07/04 02:13:56;;;;;;;8.10;5.57;;;16.70;88.70;;;;;;5034483;28;20029;-71
2021/07/04 02:16:21;;;;;;;11.43;6.20;;;16.60;88.40;;;;;;5034412;28;20025;-71
2021/07/04 02:18:50;;;;;;;8.38;5.32;;;16.50;88.70;;;;;;5034499;28;20029;-72
2021/07/04 02:21:16;;;;;;;7.50;5.88;;;16.40;89.00;;;;;;5034223;28;20025;-72
2021/07/04 02:23:42;;;;;;;9.38;5.55;;;16.40;89.40;;;;;;5034283;28;20040;-71
2021/07/04 02:26:07;;;;;;;6.95;5.63;;;16.40;89.30;;;;;;5034183;28;20072;-71
2021/07/04 02:28:33;;;;;;;9.52;5.78;;;16.40;89.50;;;;;;5034184;28;20026;-71
2021/07/04 02:30:59;;;;;;;9.90;6.20;;;16.30;89.60;;;;;;5034071;28;20036;-71
2021/07/04 02:33:26;;;;;;;7.85;5.45;;;16.30;89.80;;;;;;5033938;28;20029;-71
2021/07/04 02:35:55;;;;;;;10.15;6.15;;;16.30;89.80;;;;;;5034044;28;20083;-71
2021/07/04 02:38:21;;;;;;;6.68;5.47;;;16.20;89.80;;;;;;5033991;28;20116;-71
2021/07/04 02:40:47;;;;;;;7.03;5.88;;;16.30;90.00;;;;;;5033992;28;20097;-71
2021/07/04 02:43:16;;;;;;;10.43;6.32;;;16.20;90.10;;;;;;5033902;28;20067;-71
2021/07/04 02:45:42;;;;;;;8.07;5.60;;;16.20;90.50;;;;;;5033830;28;20502;-71
2021/07/04 02:48:09;;;;;;;10.88;6.25;;;16.20;90.40;;;;;;5033882;28;20048;-71
2021/07/04 02:50:36;;;;;;;7.03;5.28;;;16.20;90.10;;;;;;5033749;28;20039;-71
2021/07/04 02:53:02;;;;;;;7.70;5.90;;;16.20;90.10;;;;;;5033147;28;20041;-71
2021/07/04 02:55:27;;;;;;;7.63;5.47;;;16.10;90.00;;;;;;5033661;28;20029;-71
2021/07/04 02:57:53;;;;;;;8.65;5.38;;;16.10;90.00;;;;;;5033871;28;20524;-72
2021/07/04 03:00:22;;;;;;;6.75;5.38;;;16.10;89.80;;;;;;5033583;28;20425;-71
2021/07/04 03:02:47;;;;;;;7.60;5.22;;;16.10;89.80;;;;;;5033346;28;20045;-71
2021/07/04 03:05:13;;;;;;;6.75;5.97;;;16.10;90.00;;;;;;5033598;28;20435;-71
2021/07/04 03:07:39;;;;;;;6.85;5.20;;;16.10;89.90;;;;;;5033541;28;20029;-71
2021/07/04 03:10:07;;;;;;;8.70;5.53;;;16.10;89.80;;;;;;5033481;28;20029;-71
2021/07/04 03:12:33;;;;;;;11.65;5.65;;;16.10;89.80;;;;;;5033349;28;20356;-71
2021/07/04 03:14:58;;;;;;;5.88;5.07;;;16.20;89.80;;;;;;5033418;28;20048;-71
2021/07/04 03:17:24;;;;;;;11.15;6.15;;;16.20;89.70;;;;;;5033336;28;20032;-72
2021/07/04 03:19:50;;;;;;;9.05;6.25;;;16.10;89.60;;;;;;5033360;28;20021;-72
2021/07/04 03:22:15;;;;;;;7.25;5.95;;;16.00;89.60;;;;;;5033175;28;20022;-73
2021/07/04 03:24:41;;;;;;;8.07;6.55;;;16.00;89.60;;;;;;5033221;28;20370;-72
2021/07/04 03:27:08;;;;;;;6.25;5.65;;;15.90;89.60;;;;;;5033274;28;20083;-72
2021/07/04 03:29:34;;;;;;;6.65;5.95;;;16.00;89.90;;;;;;5033143;28;20096;-72
2021/07/04 03:32:00;;;;;;;9.63;5.88;;;15.90;89.80;;;;;;5033205;28;20136;-72
2021/07/04 03:34:25;;;;;;;8.68;6.20;;;16.00;89.70;;;;;;5015317;28;20466;-72
2021/07/04 03:36:51;;;;;;;7.00;5.78;;;16.00;89.90;;;;;;5015526;28;20060;-72
2021/07/04 03:39:17;;;;;;;7.55;5.60;;;15.90;90.00;;;;;;5015318;28;20028;-73
2021/07/04 03:41:42;;;;;;;6.95;6.22;;;16.00;89.80;;;;;;5032593;28;20025;-72
2021/07/04 03:44:08;;;;;;;8.10;6.05;;;15.90;89.30;;;;;;5033009;28;20363;-72
2021/07/04 03:46:34;;;;;;;10.02;5.43;;;15.90;89.30;;;;;;5032999;28;20033;-72
2021/07/04 03:48:59;;;;;;;10.35;5.53;;;15.90;89.20;;;;;;5032971;28;20057;-72
2021/07/04 03:51:25;;;;;;;6.45;5.53;;;16.00;89.00;;;;;;5032856;28;20033;-72
2021/07/04 03:53:51;;;;;;;6.82;5.47;;;16.00;89.00;;;;;;5032867;28;20037;-72
2021/07/04 03:56:16;;;;;;;5.75;5.15;;;16.00;89.10;;;;;;5032930;28;20164;-73
2021/07/04 03:58:42;;;;;;;6.00;5.40;;;16.00;89.00;;;;;;5033091;28;20531;-71
2021/07/04 04:01:09;;;;;;;8.80;5.63;;;16.10;89.10;;;;;;5032848;28;20054;-72
2021/07/04 04:03:34;;;;;;;6.47;5.80;;;16.00;88.70;;;;;;5015327;28;20509;-72
2021/07/04 04:06:00;;;;;;;10.55;5.13;;;16.00;88.70;;;;;;5037030;28;20018;-73
2021/07/04 04:08:26;;;;;;;7.70;5.53;;;16.00;88.60;;;;;;5037279;28;20025;-73
2021/07/04 04:10:52;;;;;;;7.43;5.97;;;15.90;88.80;;;;;;5036881;28;20028;-71
2021/07/04 04:13:19;;;;;;;8.15;5.47;;;16.00;88.90;;;;;;5036685;28;20041;-71
2021/07/04 04:15:45;;;;;;;7.13;5.47;;;16.00;88.80;;;;;;5036678;28;20032;-71
2021/07/04 04:18:10;;;;;;;7.70;5.07;;;16.10;88.40;;;;;;5036696;28;20029;-72
2021/07/04 04:20:37;;;;;;;6.63;5.53;;;16.10;88.40;;;;;;5036449;28;20032;-72
2021/07/04 04:23:03;;;;;;;8.18;5.28;;;16.10;88.20;;;;;;5036496;28;20032;-74
2021/07/04 04:25:28;;;;;;;7.72;5.72;;;16.00;88.30;;;;;;5018737;28;20470;-72
2021/07/04 04:27:54;;;;;;;8.20;6.35;;;16.10;88.50;;;;;;5038301;28;20099;-71
2021/07/04 04:30:20;;;;;;;8.70;5.53;;;16.00;88.40;;;;;;5041218;28;20047;-71
2021/07/04 04:32:45;;;;;;;7.05;5.07;;;16.00;88.50;;;;;;5039746;28;20037;-71
2021/07/04 04:35:11;;;;;;;5.80;5.00;;;16.10;88.40;;;;;;5037508;28;20022;-72
2021/07/04 04:37:37;;;;;;;8.10;5.47;;;16.10;88.10;;;;;;5036283;28;20112;-72
2021/07/04 04:40:05;;;;;;;8.30;5.57;;;16.10;88.20;;;;;;5036212;28;20385;-72
2021/07/04 04:42:30;;;;;;;6.43;4.68;;;16.10;88.10;;;;;;5036243;28;20065;-72
2021/07/04 04:44:56;;;;;;;5.38;4.85;;;16.30;88.20;;;;;;5036157;28;20478;-72
2021/07/04 04:47:21;;;;;;;6.07;5.00;;;16.30;88.00;;;;;;5035937;28;20038;-72
2021/07/04 04:49:47;;;;;;;6.93;5.13;;;16.40;87.50;;;;;;5036132;28;20470;-72
2021/07/04 04:52:13;;;;;;;8.85;5.07;;;16.50;87.10;;;;;;5036035;28;20509;-73
2021/07/04 04:54:38;;;;;;;5.55;4.35;;;16.50;86.70;;;;;;5035915;28;20083;-72
2021/07/04 04:57:06;;;;;;;6.03;5.18;;;16.50;86.70;;;;;;5036039;28;20027;-75
2021/07/04 04:59:34;;;;;;;9.90;5.40;;;16.60;86.60;;;;;;5035913;28;20017;-72
2021/07/04 05:02:00;;;;;;;7.43;5.72;;;16.60;86.50;;;;;;5037083;28;20025;-73
2021/07/04 05:04:25;;;;;;;8.80;5.25;;;16.60;86.60;;;;;;5043350;28;20042;-73
2021/07/04 05:06:51;;;;;;;5.20;4.70;;;16.60;86.50;;;;;;5036051;28;20033;-72
2021/07/04 05:09:16;;;;;;;7.47;5.03;;;16.60;86.40;;;;;;5035675;28;20017;-72
2021/07/04 05:11:44;;;;;;;5.28;4.50;;;16.70;86.50;;;;;;5035652;28;20381;-73
2021/07/04 05:14:10;;;;;;;5.38;4.60;;;16.70;86.60;;;;;;5035624;28;20429;-72
2021/07/04 05:16:35;;;;;;;6.28;5.00;;;16.80;86.50;;;;;;5034965;28;20022;-73
2021/07/04 05:19:05;;;;;;;5.72;5.00;;;16.80;86.10;;;;;;5035678;28;20492;-72
2021/07/04 05:21:34;;;;;;;8.02;5.53;;;16.80;85.60;;;;;;5017641;28;20109;-72
2021/07/04 05:24:01;;;;;;;5.43;4.78;;;16.80;85.70;;;;;;5035477;28;20148;-72
2021/07/04 05:26:28;;;;;;;6.97;5.13;;;16.80;85.90;;;;;;5035298;28;20063;-73
2021/07/04 05:28:54;;;;;;;7.40;4.80;;;16.80;86.00;;;;;;5017502;28;20398;-72
2021/07/04 05:31:20;;;;;;;5.90;5.30;;;16.80;87.00;;;;;;5035211;28;20105;-72
2021/07/04 05:33:45;;;;;;;6.60;5.30;;;16.80;86.40;;;;;;5017485;28;20029;-73
2021/07/04 05:36:11;;;;;;;6.80;5.85;;;16.80;86.40;;;;;;5035280;28;20037;-73
2021/07/04 05:38:38;;;;;;;7.10;5.68;;;16.80;86.40;;;;;;5035246;28;20304;-72
2021/07/04 05:41:04;;;;;;;8.70;5.68;;;16.70;86.10;;;;;;5035198;28;20018;-73
2021/07/04 05:43:30;;;;;;;7.60;5.63;;;16.70;86.50;;;;;;5035113;28;20048;-73
2021/07/04 05:45:59;;;;;;;7.18;6.03;;;16.60;86.90;;;;;;5035106;28;20033;-73
2021/07/04 05:48:25;;;;;;;6.32;5.70;;;16.60;87.20;;;;;;5035054;28;20013;-73
2021/07/04 05:50:51;;;;;;;6.57;5.68;;;16.60;87.40;;;;;;5033716;28;20523;-74
2021/07/04 05:53:17;;;;;;;11.00;5.50;;;16.60;87.20;;;;;;5034858;28;20124;-73
2021/07/04 05:55:43;;;;;;;6.63;5.28;;;16.70;87.20;;;;;;5034925;28;20478;-73
2021/07/04 05:58:09;;;;;;;6.38;5.78;;;16.80;87.00;;;;;;5034830;28;20026;-72
2021/07/04 06:00:35;;;;;;;9.32;5.47;;;16.80;86.50;;;;;;5034844;28;20018;-72
2021/07/04 06:03:01;;;;;;;7.85;5.47;;;16.70;86.50;;;;;;5034628;28;20501;-72
2021/07/04 06:05:27;;;;;;;6.93;5.20;;;16.80;86.30;;;;;;5034451;28;20028;-73
2021/07/04 06:07:52;;;;;;;7.18;5.55;;;16.90;86.20;;;;;;5034509;28;20108;-73
2021/07/04 06:10:18;;;;;;;8.15;5.07;;;17.00;85.80;;;;;;5034350;28;20021;-73
2021/07/04 06:12:44;;;;;;;5.85;4.85;;;17.00;85.70;;;;;;5034347;28;20116;-73
2021/07/04 06:15:10;;;;;;;7.03;4.85;;;17.10;85.60;;;;;;5034418;28;20108;-73
2021/07/04 06:17:36;;;;;;;5.72;5.13;;;17.20;85.10;;;;;;5034189;28;20022;-73
2021/07/04 06:20:05;;;;;;;4.90;4.40;;;17.40;84.70;;;;;;5034356;28;20414;-72
2021/07/04 06:22:30;;;;;;;8.63;4.22;;;17.60;83.90;;;;;;5034197;28;20028;-73
2021/07/04 06:24:56;;;;;;;4.85;4.35;;;17.80;83.00;;;;;;5034360;28;20014;-73
2021/07/04 06:27:22;;;;;;;4.97;3.97;;;18.10;81.90;;;;;;5033217;28;20120;-72
2021/07/04 06:29:47;;;;;;;4.38;3.97;;;18.20;81.00;;;;;;5034064;28;20088;-72
2021/07/04 06:32:13;;;;;;;6.85;4.00;;;18.40;80.40;;;;;;5034073;28;20540;-72
2021/07/04 06:34:38;;;;;;;4.63;3.67;;;18.50;79.80;;;;;;5034089;28;20026;-73
2021/07/04 06:37:04;;;;;;;6.35;3.97;;;18.70;79.40;;;;;;5034177;28;20104;-72
2021/07/04 06:39:30;;;;;;;6.90;3.47;;;18.80;78.70;;;;;;5012595;28;20427;-72
2021/07/04 06:41:55;;;;;;;5.90;3.97;;;18.90;78.40;;;;;;5022492;28;20427;-73
2021/07/04 06:44:21;;;;;;;4.00;3.58;;;19.00;77.30;;;;;;5025301;28;20021;-72
2021/07/04 06:46:46;;;;;;;5.03;3.78;;;19.10;77.30;;;;;;5053693;28;20077;-73
2021/07/04 06:49:22;;;;;;;3.97;3.58;;;19.20;77.50;;;;;;5090753;28;20393;-74
2021/07/04 06:51:47;;;;;;;4.55;3.40;;;19.30;77.30;;;;;;5089203;28;20090;-72
2021/07/04 06:54:13;;;;;;;3.72;3.42;;;19.40;76.30;;;;;;5089034;28;20032;-72
2021/07/04 06:56:39;;;;;;;5.65;3.97;;;19.50;76.20;;;;;;5089200;28;20028;-73
2021/07/04 06:59:04;;;;;;;4.43;4.03;;;19.70;76.10;;;;;;5090223;28;20104;-72
2021/07/04 07:01:32;;;;;;;4.40;4.00;;;19.70;74.30;;;;;;5088932;28;20032;-72
2021/07/04 07:03:57;;;;;;;5.38;3.85;;;19.70;73.40;;;;;;5090360;28;20024;-72
2021/07/04 07:06:25;;;;;;;4.25;3.85;;;19.80;74.00;;;;;;5090158;28;20031;-73
2021/07/04 07:08:50;;;;;;;4.60;4.10;;;19.90;74.20;;;;;;5090204;28;20035;-73
2021/07/04 07:11:16;;;;;;;5.03;4.53;;;20.00;73.70;;;;;;5090197;28;20457;-72
2021/07/04 07:13:42;;;;;;;5.72;4.28;;;20.20;73.50;;;;;;5090211;28;20025;-72
2021/07/04 07:16:07;;;;;;;4.40;4.00;;;20.30;72.90;;;;;;5088753;28;20047;-72
2021/07/04 07:18:33;;;;;;;6.10;4.40;;;20.40;71.80;;;;;;5090020;28;20048;-72
2021/07/04 07:20:59;;;;;;;4.57;4.05;;;20.50;70.00;;;;;;5089670;28;20541;-71
2021/07/04 07:23:27;;;;;;;5.22;4.72;;;20.50;70.10;;;;;;5089920;28;20032;-72
2021/07/04 07:25:53;;;;;;;5.97;4.40;;;20.60;70.30;;;;;;5089994;28;20019;-73
2021/07/04 07:28:20;;;;;;;5.40;4.03;;;20.60;70.30;;;;;;5089635;28;20032;-73
2021/07/04 07:30:46;;;;;;;6.25;4.65;;;20.80;69.80;;;;;;5089857;28;20048;-73
2021/07/04 07:33:12;;;;;;;5.53;4.30;;;20.90;69.00;;;;;;5089673;28;20032;-73
2021/07/04 07:35:38;;;;;;;4.82;4.03;;;20.90;68.60;;;;;;5089665;28;20024;-73
2021/07/04 07:38:04;;;;;;;5.28;4.78;;;21.10;68.80;;;;;;5089668;28;20028;-72
2021/07/04 07:40:35;;;;;;;5.95;5.00;;;21.20;68.50;;;;;;5089664;28;20420;-72
2021/07/04 07:43:02;;;;;;;7.78;5.22;;;21.30;66.80;;;;;;5088359;28;20027;-73
2021/07/04 07:45:28;;;;;;;5.65;4.72;;;21.30;67.20;;;;;;5088451;28;20455;-73
2021/07/04 07:47:54;;;;;;;5.40;4.88;;;21.40;66.60;;;;;;5089343;28;20048;-75
2021/07/04 07:50:20;;;;;;;6.88;5.38;;;21.50;64.60;;;;;;5089559;28;20031;-74
2021/07/04 07:52:46;;;;;;;5.80;4.80;;;21.50;65.00;;;;;;5089540;28;20070;-73
2021/07/04 07:55:12;;;;;;;7.07;4.68;;;21.50;64.90;;;;;;5089293;28;20071;-75
2021/07/04 07:57:39;;;;;;;10.65;4.60;;;21.40;65.00;;;;;;5089280;28;20111;-80
2021/07/04 08:00:08;;;;;;;7.68;4.60;;;21.40;65.10;;;;;;5079293;28;20097;-77
2021/07/04 08:02:33;;;;;;;4.97;4.53;;;21.20;63.60;;;;;;5075730;28;20040;-79
2021/07/04 08:04:59;;;;;;;6.10;4.68;;;21.10;64.60;;;;;;5075983;28;20461;-79
2021/07/04 08:07:25;;;;;;;6.28;4.40;;;21.20;64.40;;;;;;5074016;28;20545;-78
2021/07/04 08:09:50;;;;;;;5.65;4.63;;;21.30;64.30;;;;;;5074408;28;20469;-76
2021/07/04 08:12:16;;;;;;;5.60;4.43;;;21.20;63.20;;;;;;5075651;28;20028;-78
2021/07/04 08:14:43;;;;;;;5.18;4.65;;;21.10;64.40;;;;;;5074694;28;20025;-80
2021/07/04 08:17:09;;;;;;;6.15;4.65;;;20.90;65.60;;;;;;5074409;28;20067;-80
2021/07/04 08:19:35;;;;;;;6.22;4.68;;;20.90;66.30;;;;;;5074551;28;20127;-80
2021/07/04 08:22:01;;;;;;;5.88;5.05;;;20.80;67.00;;;;;;5075377;28;20103;-76
2021/07/04 08:24:27;;;;;;;5.78;5.15;;;20.60;69.00;;;;;;5075390;28;20106;-76
2021/07/04 08:26:54;;;;;;;5.70;4.75;;;20.50;68.70;;;;;;5075426;28;20111;-76
2021/07/04 08:29:20;;;;;;;4.72;4.28;;;20.50;68.70;;;;;;5075215;28;20059;-75
2021/07/04 08:31:46;;;;;;;5.68;5.07;;;20.70;67.80;;;;;;5075363;28;20016;-76
2021/07/04 08:34:12;;;;;;;5.57;4.90;;;20.90;68.00;;;;;;5077616;28;20047;-75
2021/07/04 08:36:38;;;;;;;7.47;4.80;;;21.10;66.30;;;;;;5076619;28;20029;-75
2021/07/04 08:39:05;;;;;;;5.47;4.43;;;21.40;65.40;;;;;;5073884;28;20040;-74
2021/07/04 08:41:31;;;;;;;5.18;4.10;;;21.70;64.80;;;;;;5074865;28;20047;-75
2021/07/04 08:43:56;;;;;;;5.10;4.60;;;22.00;64.60;;;;;;5075034;28;20464;-75
2021/07/04 08:46:22;;;;;;;6.50;4.55;;;22.30;63.50;;;;;;5074996;28;20023;-74
2021/07/04 08:48:48;;;;;;;6.13;4.07;;;22.60;62.30;;;;;;5074760;28;20480;-75
2021/07/04 08:51:14;;;;;;;4.47;4.05;;;22.60;60.50;;;;;;5074746;28;20032;-74
2021/07/04 08:53:40;;;;;;;6.03;4.30;;;22.70;60.40;;;;;;5074856;28;20032;-74
2021/07/04 08:56:06;;;;;;;4.35;3.95;;;22.80;59.70;;;;;;5074866;28;20026;-74
2021/07/04 08:58:32;;;;;;;5.07;4.57;;;22.80;59.00;;;;;;5074886;28;20482;-75
2021/07/04 09:01:15;;;;;;;4.70;3.97;;;22.70;59.00;;;;;;5074941;28;20107;-75
2021/07/04 09:03:48;;;;;;;5.03;4.07;;;22.80;59.70;;;;;;5074777;28;20477;-75
2021/07/04 09:06:34;;;;;;;4.35;3.95;;;22.90;59.30;;;;;;5074178;28;20035;-76
2021/07/04 09:09:13;;;;;;;4.95;3.53;;;22.80;60.00;;;;;;5074614;28;20120;-75
2021/07/04 09:11:52;;;;;;;4.10;3.70;;;22.90;59.20;;;;;;5073551;28;20546;-75
2021/07/04 09:14:28;;;;;;;5.10;4.03;;;23.10;59.00;;;;;;5074361;28;20056;-75
2021/07/04 09:16:54;;;;;;;5.00;4.15;;;23.20;59.30;;;;;;5074661;28;20016;-76
2021/07/04 09:19:19;;;;;;;4.65;4.15;;;23.30;59.80;;;;;;5074432;28;20375;-76
2021/07/04 09:21:55;;;;;;;4.22;3.83;;;23.40;58.10;;;;;;5073879;28;20388;-76
2021/07/04 09:24:28;;;;;;;5.28;4.30;;;23.20;57.10;;;;;;5074066;28;20031;-76
2021/07/04 09:26:54;;;;;;;5.03;3.55;;;23.10;57.60;;;;;;5072858;28;20054;-74
2021/07/04 09:29:50;;;;;;;4.57;3.78;;;23.10;57.70;;;;;;5073928;28;20040;-75
2021/07/04 09:32:28;;;;;;;4.80;3.95;;;22.80;56.40;;;;;;5071875;28;20028;-74
2021/07/04 09:34:59;;;;;;;5.30;4.32;;;22.70;56.70;;;;;;5073950;28;20031;-75
2021/07/04 09:37:30;;;;;;;5.20;3.60;;;22.60;57.70;;;;;;5072583;28;20029;-75
2021/07/04 09:40:10;;;;;;;4.43;4.03;;;22.70;57.50;;;;;;5073941;28;20028;-74
2021/07/04 09:42:53;;;;;;;4.57;4.13;;;22.70;57.10;;;;;;5073757;28;20024;-74
2021/07/04 09:45:19;;;;;;;4.25;3.85;;;22.50;57.70;;;;;;5073767;28;20016;-75
2021/07/04 09:47:51;;;;;;;6.63;3.80;;;22.60;58.60;;;;;;5073495;28;20405;-75
2021/07/04 09:50:17;;;;;;;6.22;3.92;;;22.50;56.90;;;;;;5073760;28;20036;-75
2021/07/04 09:52:55;;;;;;;4.25;3.85;;;22.40;58.30;;;;;;5073695;28;20024;-73
2021/07/04 09:55:21;;;;;;;4.28;3.22;;;22.30;57.60;;;;;;5073688;28;20404;-75
2021/07/04 09:58:00;;;;;;;3.75;3.38;;;22.10;60.10;;;;;;5073627;28;20021;-72
2021/07/04 10:00:28;;;;;;;4.72;3.35;;;22.00;58.90;;;;;;5073393;28;20618;-75
2021/07/04 10:03:14;;;;;;;3.78;3.42;;;22.00;59.80;;;;;;5073481;28;20104;-74
2021/07/04 10:05:44;;;;;;;4.47;3.63;;;21.90;59.00;;;;;;5073568;28;20024;-72
2021/07/04 10:08:20;;;;;;;3.97;3.55;;;21.80;60.00;;;;;;5070893;28;20385;-72
2021/07/04 10:10:46;;;;;;;5.43;3.70;;;21.80;60.20;;;;;;5070552;28;20024;-72
2021/07/04 10:13:12;;;;;;;4.97;3.67;;;21.80;61.00;;;;;;5071923;28;20140;-72
2021/07/04 10:15:40;;;;;;;4.28;3.88;;;21.80;61.20;;;;;;5071998;28;20051;-73
2021/07/04 10:18:08;;;;;;;3.97;3.30;;;21.80;61.00;;;;;;5073333;28;20023;-72
2021/07/04 10:20:34;;;;;;;6.10;3.90;;;21.70;61.50;;;;;;5073179;28;20066;-72
2021/07/04 10:22:59;;;;;;;4.20;3.50;;;21.80;62.40;;;;;;5072911;28;20024;-72
2021/07/04 10:25:25;;;;;;;3.28;2.97;;;21.70;62.30;;;;;;5073190;28;20116;-72
2021/07/04 10:27:51;;;;;;;3.63;3.33;;;21.60;63.60;;;;;;5073034;28;20504;-71
2021/07/04 10:30:16;;;;;;;3.70;3.30;;;21.70;64.00;;;;;;5073005;28;20095;-72
2021/07/04 10:33:05;;;;;;;3.25;2.65;;;22.00;63.50;;;;;;5073364;28;20020;-73
2021/07/04 10:35:34;;;;;;;3.53;2.92;;;22.10;61.60;;;;;;5073148;28;20009;-76
2021/07/04 10:38:14;;;;;;;5.07;3.28;;;22.30;61.20;;;;;;5071706;28;20032;-73
2021/07/04 10:40:40;;;;;;;2.78;2.47;;;22.30;62.40;;;;;;5073117;28;20029;-74
2021/07/04 10:43:06;;;;;;;3.45;3.10;;;22.30;60.00;;;;;;5073072;28;20434;-73
2021/07/04 10:45:37;;;;;;;4.57;2.78;;;22.50;60.00;;;;;;5073233;28;20028;-74
2021/07/04 10:48:27;;;;;;;2.63;2.42;;;22.60;59.50;;;;;;5072726;28;20075;-75
2021/07/04 10:51:13;;;;;;;3.50;2.65;;;22.90;59.00;;;;;;5073138;28;20032;-76
2021/07/04 10:53:50;;;;;;;4.68;2.72;;;23.00;58.80;;;;;;5071800;28;20058;-75
2021/07/04 10:56:34;;;;;;;5.57;2.40;;;23.10;57.90;;;;;;5071675;28;20020;-76
2021/07/04 10:59:07;;;;;;;3.95;2.83;;;22.80;59.30;;;;;;5071596;28;20107;-76
2021/07/04 11:01:57;;;;;;;2.83;2.25;;;22.70;60.00;;;;;;5071574;28;20024;-75
2021/07/04 11:04:32;;;;;;;2.38;2.17;;;22.70;58.00;;;;;;5071549;28;20472;-75
2021/07/04 11:06:58;;;;;;;2.60;2.40;;;22.80;58.60;;;;;;5071600;28;20116;-73
2021/07/04 11:09:44;;;;;;;2.47;2.00;;;22.80;59.40;;;;;;5071319;28;20041;-73
2021/07/04 11:12:30;;;;;;;2.60;1.85;;;22.80;58.60;;;;;;5071226;28;20023;-75
2021/07/04 11:15:11;;;;;;;4.32;2.20;;;22.80;59.20;;;;;;5071323;28;20131;-74
2021/07/04 11:17:58;;;;;;;2.40;2.20;;;22.90;59.00;;;;;;5071313;28;20024;-76
2021/07/04 11:20:56;;;;;;;2.50;2.30;;;22.90;59.80;;;;;;5071218;28;20021;-76
2021/07/04 11:23:26;;;;;;;2.33;2.13;;;23.00;58.00;;;;;;5071347;28;20365;-73
2021/07/04 11:25:56;;;;;;;2.33;2.13;;;23.10;58.20;;;;;;5071429;28;20472;-72
2021/07/04 11:28:45;;;;;;;2.45;2.25;;;23.20;57.40;;;;;;5071119;28;20123;-74
2021/07/04 11:31:16;;;;;;;1.70;1.55;;;23.40;56.30;;;;;;5071417;28;20024;-72
2021/07/04 11:33:43;;;;;;;1.75;1.65;;;23.50;55.20;;;;;;5071462;28;20017;-74
2021/07/04 11:36:16;;;;;;;2.08;1.65;;;23.80;52.20;;;;;;5074608;28;20028;-72
2021/07/04 11:38:56;;;;;;;2.88;2.25;;;24.20;51.80;;;;;;5075033;28;20028;-73
2021/07/04 11:41:27;;;;;;;1.50;1.40;;;24.30;52.50;;;;;;5075012;28;20522;-74
2021/07/04 11:44:00;;;;;;;2.65;1.98;;;24.00;53.40;;;;;;5074892;28;20020;-75
2021/07/04 11:46:28;;;;;;;1.48;1.38;;;23.70;53.90;;;;;;5074758;28;20032;-74
2021/07/04 11:49:09;;;;;;;1.92;1.63;;;23.50;54.40;;;;;;5074602;28;20049;-73
2021/07/04 11:51:42;;;;;;;3.53;2.20;;;23.50;55.00;;;;;;5074904;28;20032;-73
2021/07/04 11:54:27;;;;;;;1.92;1.80;;;23.30;55.60;;;;;;5074855;28;20051;-73
2021/07/04 11:59:51;;;;;;;2.15;1.95;;;23.80;55.30;;;;;;5076000;28;20027;-75
2021/07/04 12:02:17;;;;;;;2.05;1.92;;;23.90;53.20;;;;;;5074561;28;20067;-74
2021/07/04 12:04:45;;;;;;;2.03;1.83;;;24.20;54.10;;;;;;5076941;28;20025;-75
2021/07/04 12:07:12;;;;;;;2.25;1.90;;;24.20;52.70;;;;;;5077210;28;20366;-74
2021/07/04 12:09:48;;;;;;;2.45;2.25;;;24.20;52.80;;;;;;5080281;28;20021;-74
2021/07/04 12:12:19;;;;;;;3.15;2.33;;;24.10;53.70;;;;;;5081071;28;20031;-75
2021/07/04 12:14:47;;;;;;;2.33;2.05;;;23.90;53.70;;;;;;5074409;28;20028;-73
2021/07/04 12:17:32;;;;;;;2.40;2.08;;;23.60;55.20;;;;;;5074335;28;20016;-76
2021/07/04 12:20:06;;;;;;;3.58;2.30;;;23.40;56.00;;;;;;5074343;28;20030;-74
2021/07/04 12:22:36;;;;;;;3.15;2.15;;;22.90;57.20;;;;;;5074251;28;20114;-76
2021/07/04 12:25:09;;;;;;;2.50;2.30;;;22.90;57.10;;;;;;5074171;28;20024;-74
2021/07/04 12:27:39;;;;;;;3.03;2.53;;;22.80;58.40;;;;;;5074039;28;20541;-73
2021/07/04 12:30:09;;;;;;;2.33;2.13;;;22.70;58.50;;;;;;5074148;28;20038;-73
2021/07/04 12:33:09;;;;;;;4.30;2.13;;;22.70;57.30;;;;;;5073931;28;20072;-72
2021/07/04 12:35:34;;;;;;;3.47;2.70;;;22.60;57.60;;;;;;5069054;28;20033;-73
2021/07/04 12:38:03;;;;;;;4.35;2.25;;;22.40;58.50;;;;;;5073968;28;20023;-72
2021/07/04 12:40:35;;;;;;;2.70;2.20;;;22.50;59.00;;;;;;5073702;28;20071;-73
2021/07/04 12:43:15;;;;;;;2.85;2.50;;;22.70;58.70;;;;;;5073755;28;20017;-72
2021/07/04 12:45:49;;;;;;;2.35;2.15;;;23.00;58.60;;;;;;5073657;28;20101;-72
2021/07/04 12:48:17;;;;;;;2.75;2.22;;;23.00;57.00;;;;;;5073339;28;20109;-71
2021/07/04 12:51:02;;;;;;;3.03;2.75;;;23.10;57.10;;;;;;5073637;28;20032;-71
2021/07/04 12:53:40;;;;;;;2.92;2.50;;;23.10;57.50;;;;;;5073488;28;20032;-73
2021/07/04 12:56:23;;;;;;;3.33;2.63;;;23.00;56.40;;;;;;5073383;28;20032;-72